Aeroporto :







RITROVATECI SU...

 
LOGIN :

Iscrizione | Disclaimer

   EN    FR    IT 

 









Sommario :    VFR   VFR Marginale   IFR   IFR Intensivo   IFR Molto Intensivo
Visibilità : 
Base nubi : 
>= 8 km
>= 3000ft
5 / 8 km
1000 / 3000 ft
1500m / 5 km
500 / 1000 ft
800 / 1500m
200 / 500 ft
< 800m
< 200 ft
Simboli :   Temporali  Nebbia  Neve Forte  Precipitazioni Forti  Vento > 20 kt






- Altitudine del aeroporto : 1808 ft
- Codice IATA : YWK


CYWK - Wabush

ULTIMO METAR :
  • 291605Z 19005KT 110V220 15SM BKN015 OVC022 18/16 A2963 RMK SC5SC3 SLP044 DENSITY ALT 2900FT

METARs OBSOLETI :
  • 291500Z CCA 22008KT 15SM -RA BKN006 BKN009 OVC011 16/14 A2965 RMK SC5SC2SC1 SLP052 DENSITY ALT 2700FT
  • 291400Z VRB02KT 5SM -RA BKN003 OVC008 12/12 A2966 RMK SF5SC3 SLP056 DENSITY ALT 2200FT

TAF TAF CYWK
Valido dal 29 a 14 ore il 30 a 02 ore UTC


291338Z 2914/3002 VRB03KT P6SM OVC020
TEMPO 2914/2918 4SM -SHRA BR OVC005
FM291800 19015G25KT P6SM BKN030
TEMPO 2918/3002 P6SM -SHRA OVC020
BECMG 3000/3002 23012KT RMK NXT FCST BY 292000Z
FIR CZUL / America del Nord



MetMap, La meteo Aeronautica in un colpo d'occhio ! - Copyright ORBIFLY Dicembre 2007 - Disclaimer

ORBIFLY MET'MAP TEAM :

Programmazione e sviluppo : Alexandra Zaïnal
Concezione : Baudouin d'Aumeries
Aiuto per la programmazione : Marc-Olivier Méhu
Supporto tecnico e logistico : Manuel Goepfert
Aiuto per la traduzione : Arnaldo La Scala

Contatto : metmap@orbifly.com




FONTI E CREDITI :

   NOAA